sensor_id;sensor_type;location;lat;lon;timestamp;P1;durP1;ratioP1;P2;durP2;ratioP2
35969;SDS011;22448;51.298;6.430;2023-04-25T00:02:01;30.35;;;8.88;;
35969;SDS011;22448;51.298;6.430;2023-04-25T00:04:29;28.15;;;8.75;;
35969;SDS011;22448;51.298;6.430;2023-04-25T00:07:00;24.20;;;8.50;;
35969;SDS011;22448;51.298;6.430;2023-04-25T00:09:31;35.05;;;9.70;;
35969;SDS011;22448;51.298;6.430;2023-04-25T00:11:58;29.77;;;8.68;;
35969;SDS011;22448;51.298;6.430;2023-04-25T00:14:25;25.63;;;8.93;;
35969;SDS011;22448;51.298;6.430;2023-04-25T00:16:52;34.08;;;8.05;;
35969;SDS011;22448;51.298;6.430;2023-04-25T00:19:20;31.13;;;9.60;;
35969;SDS011;22448;51.298;6.430;2023-04-25T00:21:47;34.22;;;8.57;;
35969;SDS011;22448;51.298;6.430;2023-04-25T00:24:14;30.88;;;9.35;;
35969;SDS011;22448;51.298;6.430;2023-04-25T00:26:41;43.75;;;10.23;;
35969;SDS011;22448;51.298;6.430;2023-04-25T00:29:08;32.35;;;8.57;;
35969;SDS011;22448;51.298;6.430;2023-04-25T00:31:36;30.60;;;8.43;;
35969;SDS011;22448;51.298;6.430;2023-04-25T00:34:03;34.20;;;9.20;;
35969;SDS011;22448;51.298;6.430;2023-04-25T00:36:31;34.13;;;9.10;;
35969;SDS011;22448;51.298;6.430;2023-04-25T00:38:58;33.75;;;9.50;;
35969;SDS011;22448;51.298;6.430;2023-04-25T00:41:26;25.30;;;8.63;;
35969;SDS011;22448;51.298;6.430;2023-04-25T00:43:53;31.67;;;8.52;;
35969;SDS011;22448;51.298;6.430;2023-04-25T00:46:22;29.48;;;8.52;;
35969;SDS011;22448;51.298;6.430;2023-04-25T00:48:49;30.55;;;9.63;;
35969;SDS011;22448;51.298;6.430;2023-04-25T00:51:19;29.90;;;10.38;;
35969;SDS011;22448;51.298;6.430;2023-04-25T00:53:47;30.52;;;8.55;;
35969;SDS011;22448;51.298;6.430;2023-04-25T00:56:16;26.92;;;9.13;;
35969;SDS011;22448;51.298;6.430;2023-04-25T00:58:44;28.65;;;8.93;;
35969;SDS011;22448;51.298;6.430;2023-04-25T01:01:11;30.77;;;9.13;;
35969;SDS011;22448;51.298;6.430;2023-04-25T01:03:39;33.72;;;9.05;;
35969;SDS011;22448;51.298;6.430;2023-04-25T01:06:08;31.60;;;9.18;;
35969;SDS011;22448;51.298;6.430;2023-04-25T01:08:37;36.13;;;8.45;;
35969;SDS011;22448;51.298;6.430;2023-04-25T01:11:06;25.35;;;8.23;;
35969;SDS011;22448;51.298;6.430;2023-04-25T01:13:33;25.90;;;8.63;;
35969;SDS011;22448;51.298;6.430;2023-04-25T01:16:01;22.90;;;9.00;;
35969;SDS011;22448;51.298;6.430;2023-04-25T01:18:29;27.40;;;8.63;;
35969;SDS011;22448;51.298;6.430;2023-04-25T01:20:56;26.27;;;7.53;;
35969;SDS011;22448;51.298;6.430;2023-04-25T01:23:33;20.02;;;8.10;;
35969;SDS011;22448;51.298;6.430;2023-04-25T01:26:00;20.33;;;7.50;;
35969;SDS011;22448;51.298;6.430;2023-04-25T01:28:28;22.27;;;7.70;;
35969;SDS011;22448;51.298;6.430;2023-04-25T01:30:56;21.33;;;7.15;;
35969;SDS011;22448;51.298;6.430;2023-04-25T01:33:24;24.63;;;6.78;;
35969;SDS011;22448;51.298;6.430;2023-04-25T01:35:51;24.10;;;8.35;;
35969;SDS011;22448;51.298;6.430;2023-04-25T01:38:19;24.30;;;6.88;;
35969;SDS011;22448;51.298;6.430;2023-04-25T01:40:46;24.70;;;7.85;;
35969;SDS011;22448;51.298;6.430;2023-04-25T01:43:17;22.58;;;7.75;;
35969;SDS011;22448;51.298;6.430;2023-04-25T01:45:44;22.23;;;8.02;;
35969;SDS011;22448;51.298;6.430;2023-04-25T01:48:12;22.02;;;7.05;;
35969;SDS011;22448;51.298;6.430;2023-04-25T01:50:42;27.42;;;7.55;;
35969;SDS011;22448;51.298;6.430;2023-04-25T01:53:11;18.25;;;6.68;;
35969;SDS011;22448;51.298;6.430;2023-04-25T01:55:42;19.42;;;7.03;;
35969;SDS011;22448;51.298;6.430;2023-04-25T01:58:12;21.52;;;6.95;;
35969;SDS011;22448;51.298;6.430;2023-04-25T02:00:58;19.73;;;7.03;;
35969;SDS011;22448;51.298;6.430;2023-04-25T02:03:31;22.38;;;6.97;;
35969;SDS011;22448;51.298;6.430;2023-04-25T02:05:59;16.40;;;6.70;;
35969;SDS011;22448;51.298;6.430;2023-04-25T02:08:28;23.52;;;7.38;;
35969;SDS011;22448;51.298;6.430;2023-04-25T02:10:55;22.15;;;6.93;;
35969;SDS011;22448;51.298;6.430;2023-04-25T02:13:23;24.13;;;7.57;;
35969;SDS011;22448;51.298;6.430;2023-04-25T02:16:12;30.45;;;8.95;;
35969;SDS011;22448;51.298;6.430;2023-04-25T02:18:39;21.65;;;7.68;;
35969;SDS011;22448;51.298;6.430;2023-04-25T02:21:06;26.90;;;8.77;;
35969;SDS011;22448;51.298;6.430;2023-04-25T02:23:33;33.80;;;8.80;;
35969;SDS011;22448;51.298;6.430;2023-04-25T02:26:00;29.52;;;8.32;;
35969;SDS011;22448;51.298;6.430;2023-04-25T02:28:28;21.38;;;8.02;;
35969;SDS011;22448;51.298;6.430;2023-04-25T02:30:55;31.20;;;7.88;;
35969;SDS011;22448;51.298;6.430;2023-04-25T02:33:23;22.40;;;8.43;;
35969;SDS011;22448;51.298;6.430;2023-04-25T02:35:50;25.45;;;8.00;;
35969;SDS011;22448;51.298;6.430;2023-04-25T02:38:20;21.40;;;7.90;;
35969;SDS011;22448;51.298;6.430;2023-04-25T02:40:48;28.73;;;7.82;;
35969;SDS011;22448;51.298;6.430;2023-04-25T02:43:15;21.77;;;8.05;;
35969;SDS011;22448;51.298;6.430;2023-04-25T02:45:42;24.58;;;7.88;;
35969;SDS011;22448;51.298;6.430;2023-04-25T02:48:10;24.35;;;8.15;;
35969;SDS011;22448;51.298;6.430;2023-04-25T02:50:37;24.83;;;8.40;;
35969;SDS011;22448;51.298;6.430;2023-04-25T02:53:05;25.98;;;8.15;;
35969;SDS011;22448;51.298;6.430;2023-04-25T02:55:37;21.13;;;8.48;;
35969;SDS011;22448;51.298;6.430;2023-04-25T02:58:05;27.98;;;8.15;;
35969;SDS011;22448;51.298;6.430;2023-04-25T03:00:42;34.95;;;9.23;;
35969;SDS011;22448;51.298;6.430;2023-04-25T03:03:09;27.77;;;8.30;;
35969;SDS011;22448;51.298;6.430;2023-04-25T03:05:36;26.48;;;8.65;;
35969;SDS011;22448;51.298;6.430;2023-04-25T03:08:03;31.77;;;8.90;;
35969;SDS011;22448;51.298;6.430;2023-04-25T03:10:32;22.38;;;8.23;;
35969;SDS011;22448;51.298;6.430;2023-04-25T03:13:03;31.73;;;8.80;;
35969;SDS011;22448;51.298;6.430;2023-04-25T03:15:30;25.73;;;8.50;;
35969;SDS011;22448;51.298;6.430;2023-04-25T03:17:57;26.25;;;9.13;;
35969;SDS011;22448;51.298;6.430;2023-04-25T03:20:24;30.17;;;9.00;;
35969;SDS011;22448;51.298;6.430;2023-04-25T03:22:51;33.55;;;8.80;;
35969;SDS011;22448;51.298;6.430;2023-04-25T03:25:18;29.23;;;9.05;;
35969;SDS011;22448;51.298;6.430;2023-04-25T03:27:45;27.67;;;9.88;;
35969;SDS011;22448;51.298;6.430;2023-04-25T03:30:12;33.65;;;9.85;;
35969;SDS011;22448;51.298;6.430;2023-04-25T03:32:41;38.75;;;9.23;;
35969;SDS011;22448;51.298;6.430;2023-04-25T03:35:08;36.72;;;10.00;;
35969;SDS011;22448;51.298;6.430;2023-04-25T03:37:35;35.95;;;10.57;;
35969;SDS011;22448;51.298;6.430;2023-04-25T03:40:02;30.38;;;10.70;;
35969;SDS011;22448;51.298;6.430;2023-04-25T03:42:50;32.22;;;10.23;;
35969;SDS011;22448;51.298;6.430;2023-04-25T03:45:17;31.90;;;9.68;;
35969;SDS011;22448;51.298;6.430;2023-04-25T03:47:44;27.25;;;10.60;;
35969;SDS011;22448;51.298;6.430;2023-04-25T03:50:11;37.85;;;10.07;;
35969;SDS011;22448;51.298;6.430;2023-04-25T03:52:38;31.38;;;10.23;;
35969;SDS011;22448;51.298;6.430;2023-04-25T03:55:05;25.00;;;9.15;;
35969;SDS011;22448;51.298;6.430;2023-04-25T03:57:33;39.53;;;10.68;;
35969;SDS011;22448;51.298;6.430;2023-04-25T04:00:00;29.80;;;10.13;;
35969;SDS011;22448;51.298;6.430;2023-04-25T04:02:38;34.38;;;9.90;;
35969;SDS011;22448;51.298;6.430;2023-04-25T04:05:09;28.52;;;10.32;;
35969;SDS011;22448;51.298;6.430;2023-04-25T04:07:44;33.25;;;10.32;;
35969;SDS011;22448;51.298;6.430;2023-04-25T04:10:11;36.17;;;10.18;;
35969;SDS011;22448;51.298;6.430;2023-04-25T04:12:39;34.88;;;10.95;;
35969;SDS011;22448;51.298;6.430;2023-04-25T04:15:06;34.08;;;10.68;;
35969;SDS011;22448;51.298;6.430;2023-04-25T04:17:34;43.75;;;11.38;;
35969;SDS011;22448;51.298;6.430;2023-04-25T04:20:01;40.25;;;10.90;;
35969;SDS011;22448;51.298;6.430;2023-04-25T04:22:30;33.95;;;10.05;;
35969;SDS011;22448;51.298;6.430;2023-04-25T04:25:03;39.22;;;10.80;;
35969;SDS011;22448;51.298;6.430;2023-04-25T04:27:51;35.50;;;12.32;;
35969;SDS011;22448;51.298;6.430;2023-04-25T04:30:47;46.00;;;11.02;;
35969;SDS011;22448;51.298;6.430;2023-04-25T04:33:14;32.72;;;11.02;;
35969;SDS011;22448;51.298;6.430;2023-04-25T04:35:44;49.67;;;12.40;;
35969;SDS011;22448;51.298;6.430;2023-04-25T04:38:13;37.10;;;11.73;;
35969;SDS011;22448;51.298;6.430;2023-04-25T04:40:42;38.58;;;12.05;;
35969;SDS011;22448;51.298;6.430;2023-04-25T04:43:18;34.42;;;11.00;;
35969;SDS011;22448;51.298;6.430;2023-04-25T04:46:00;50.25;;;12.02;;
35969;SDS011;22448;51.298;6.430;2023-04-25T04:48:32;39.30;;;11.40;;
35969;SDS011;22448;51.298;6.430;2023-04-25T04:51:19;40.97;;;11.88;;
35969;SDS011;22448;51.298;6.430;2023-04-25T04:53:53;43.92;;;10.98;;
35969;SDS011;22448;51.298;6.430;2023-04-25T04:56:29;34.85;;;11.10;;
35969;SDS011;22448;51.298;6.430;2023-04-25T04:59:16;31.55;;;10.43;;
35969;SDS011;22448;51.298;6.430;2023-04-25T05:02:06;35.17;;;11.02;;
35969;SDS011;22448;51.298;6.430;2023-04-25T05:04:47;36.00;;;10.95;;
35969;SDS011;22448;51.298;6.430;2023-04-25T05:07:33;35.38;;;10.77;;
35969;SDS011;22448;51.298;6.430;2023-04-25T05:10:19;33.95;;;10.65;;
35969;SDS011;22448;51.298;6.430;2023-04-25T05:12:55;32.28;;;9.07;;
35969;SDS011;22448;51.298;6.430;2023-04-25T05:15:43;33.42;;;9.30;;
35969;SDS011;22448;51.298;6.430;2023-04-25T05:18:21;31.83;;;8.50;;
35969;SDS011;22448;51.298;6.430;2023-04-25T05:21:18;31.35;;;8.55;;
35969;SDS011;22448;51.298;6.430;2023-04-25T05:24:03;26.67;;;8.40;;
35969;SDS011;22448;51.298;6.430;2023-04-25T05:26:33;26.55;;;8.93;;
35969;SDS011;22448;51.298;6.430;2023-04-25T05:29:21;32.95;;;7.82;;
35969;SDS011;22448;51.298;6.430;2023-04-25T05:32:24;26.77;;;7.95;;
35969;SDS011;22448;51.298;6.430;2023-04-25T05:34:52;27.10;;;7.03;;
35969;SDS011;22448;51.298;6.430;2023-04-25T05:37:24;27.08;;;7.75;;
35969;SDS011;22448;51.298;6.430;2023-04-25T05:39:58;24.90;;;6.82;;
35969;SDS011;22448;51.298;6.430;2023-04-25T05:42:43;27.48;;;7.65;;
35969;SDS011;22448;51.298;6.430;2023-04-25T05:45:37;30.27;;;7.15;;
35969;SDS011;22448;51.298;6.430;2023-04-25T05:48:10;28.58;;;7.70;;
35969;SDS011;22448;51.298;6.430;2023-04-25T05:50:55;26.35;;;6.55;;
35969;SDS011;22448;51.298;6.430;2023-04-25T05:53:41;20.42;;;6.80;;
35969;SDS011;22448;51.298;6.430;2023-04-25T05:56:08;29.63;;;7.00;;
35969;SDS011;22448;51.298;6.430;2023-04-25T05:58:35;23.95;;;6.95;;
35969;SDS011;22448;51.298;6.430;2023-04-25T06:01:03;34.47;;;7.78;;
35969;SDS011;22448;51.298;6.430;2023-04-25T06:03:31;25.20;;;6.18;;
35969;SDS011;22448;51.298;6.430;2023-04-25T06:05:58;24.55;;;6.15;;
35969;SDS011;22448;51.298;6.430;2023-04-25T06:08:25;23.52;;;6.50;;
35969;SDS011;22448;51.298;6.430;2023-04-25T06:10:53;21.80;;;6.03;;
35969;SDS011;22448;51.298;6.430;2023-04-25T06:13:21;26.60;;;6.97;;
35969;SDS011;22448;51.298;6.430;2023-04-25T06:15:49;21.80;;;5.53;;
35969;SDS011;22448;51.298;6.430;2023-04-25T06:18:16;21.92;;;5.68;;
35969;SDS011;22448;51.298;6.430;2023-04-25T06:20:43;30.77;;;7.30;;
35969;SDS011;22448;51.298;6.430;2023-04-25T06:23:10;23.23;;;6.15;;
35969;SDS011;22448;51.298;6.430;2023-04-25T06:25:58;33.47;;;6.43;;
35969;SDS011;22448;51.298;6.430;2023-04-25T06:28:26;27.65;;;6.68;;
35969;SDS011;22448;51.298;6.430;2023-04-25T06:30:53;27.85;;;6.05;;
35969;SDS011;22448;51.298;6.430;2023-04-25T06:33:21;22.83;;;6.05;;
35969;SDS011;22448;51.298;6.430;2023-04-25T06:35:48;31.90;;;7.20;;
35969;SDS011;22448;51.298;6.430;2023-04-25T06:38:20;25.85;;;6.05;;
35969;SDS011;22448;51.298;6.430;2023-04-25T06:40:50;23.00;;;5.53;;
35969;SDS011;22448;51.298;6.430;2023-04-25T06:43:18;22.17;;;5.78;;
35969;SDS011;22448;51.298;6.430;2023-04-25T06:45:48;24.67;;;5.63;;
35969;SDS011;22448;51.298;6.430;2023-04-25T06:48:15;22.98;;;5.35;;
35969;SDS011;22448;51.298;6.430;2023-04-25T06:50:43;23.48;;;5.65;;
35969;SDS011;22448;51.298;6.430;2023-04-25T06:53:11;28.77;;;6.25;;
35969;SDS011;22448;51.298;6.430;2023-04-25T06:55:40;34.83;;;5.85;;
35969;SDS011;22448;51.298;6.430;2023-04-25T06:58:14;24.92;;;5.45;;
35969;SDS011;22448;51.298;6.430;2023-04-25T07:01:14;20.65;;;5.75;;
35969;SDS011;22448;51.298;6.430;2023-04-25T07:03:41;19.63;;;4.47;;
35969;SDS011;22448;51.298;6.430;2023-04-25T07:06:14;22.95;;;4.45;;
35969;SDS011;22448;51.298;6.430;2023-04-25T07:08:41;24.90;;;4.70;;
35969;SDS011;22448;51.298;6.430;2023-04-25T07:11:08;27.08;;;5.07;;
35969;SDS011;22448;51.298;6.430;2023-04-25T07:13:36;34.45;;;4.82;;
35969;SDS011;22448;51.298;6.430;2023-04-25T07:16:03;21.65;;;4.40;;
35969;SDS011;22448;51.298;6.430;2023-04-25T07:18:33;17.13;;;4.63;;
35969;SDS011;22448;51.298;6.430;2023-04-25T07:21:01;23.70;;;4.97;;
35969;SDS011;22448;51.298;6.430;2023-04-25T07:23:30;29.30;;;6.25;;
35969;SDS011;22448;51.298;6.430;2023-04-25T07:25:59;23.77;;;4.85;;
35969;SDS011;22448;51.298;6.430;2023-04-25T07:28:28;20.05;;;5.50;;
35969;SDS011;22448;51.298;6.430;2023-04-25T07:30:55;25.73;;;5.70;;
35969;SDS011;22448;51.298;6.430;2023-04-25T07:33:23;22.58;;;5.00;;
35969;SDS011;22448;51.298;6.430;2023-04-25T07:35:51;21.08;;;5.07;;
35969;SDS011;22448;51.298;6.430;2023-04-25T07:38:19;22.67;;;4.85;;
35969;SDS011;22448;51.298;6.430;2023-04-25T07:40:47;23.92;;;4.75;;
35969;SDS011;22448;51.298;6.430;2023-04-25T07:43:15;18.63;;;4.38;;
35969;SDS011;22448;51.298;6.430;2023-04-25T07:45:51;19.27;;;4.38;;
35969;SDS011;22448;51.298;6.430;2023-04-25T07:48:19;17.77;;;4.45;;
35969;SDS011;22448;51.298;6.430;2023-04-25T07:50:47;17.52;;;4.45;;
35969;SDS011;22448;51.298;6.430;2023-04-25T07:53:14;18.70;;;3.67;;
35969;SDS011;22448;51.298;6.430;2023-04-25T07:55:48;23.10;;;4.53;;
35969;SDS011;22448;51.298;6.430;2023-04-25T07:58:17;15.43;;;3.97;;
35969;SDS011;22448;51.298;6.430;2023-04-25T08:00:53;16.88;;;3.85;;
35969;SDS011;22448;51.298;6.430;2023-04-25T08:03:36;19.75;;;3.80;;
35969;SDS011;22448;51.298;6.430;2023-04-25T08:06:08;16.23;;;3.72;;
35969;SDS011;22448;51.298;6.430;2023-04-25T08:08:46;19.08;;;3.80;;
35969;SDS011;22448;51.298;6.430;2023-04-25T08:11:17;20.35;;;3.45;;
35969;SDS011;22448;51.298;6.430;2023-04-25T08:13:44;14.82;;;3.47;;
35969;SDS011;22448;51.298;6.430;2023-04-25T08:16:11;22.77;;;4.53;;
35969;SDS011;22448;51.298;6.430;2023-04-25T08:18:39;21.48;;;4.32;;
35969;SDS011;22448;51.298;6.430;2023-04-25T08:21:06;20.38;;;3.42;;
35969;SDS011;22448;51.298;6.430;2023-04-25T08:23:35;18.85;;;5.88;;
35969;SDS011;22448;51.298;6.430;2023-04-25T08:26:19;17.25;;;4.45;;
35969;SDS011;22448;51.298;6.430;2023-04-25T08:28:49;23.63;;;4.05;;
35969;SDS011;22448;51.298;6.430;2023-04-25T08:31:16;24.83;;;4.15;;
35969;SDS011;22448;51.298;6.430;2023-04-25T08:33:57;19.92;;;4.90;;
35969;SDS011;22448;51.298;6.430;2023-04-25T08:36:30;23.17;;;4.70;;
35969;SDS011;22448;51.298;6.430;2023-04-25T08:39:25;17.50;;;4.13;;
35969;SDS011;22448;51.298;6.430;2023-04-25T08:42:11;21.52;;;4.03;;
35969;SDS011;22448;51.298;6.430;2023-04-25T08:44:39;26.50;;;4.03;;
35969;SDS011;22448;51.298;6.430;2023-04-25T08:47:06;16.27;;;3.83;;
35969;SDS011;22448;51.298;6.430;2023-04-25T08:49:43;20.88;;;3.17;;
35969;SDS011;22448;51.298;6.430;2023-04-25T08:52:14;16.45;;;3.95;;
35969;SDS011;22448;51.298;6.430;2023-04-25T08:54:43;21.50;;;4.28;;
35969;SDS011;22448;51.298;6.430;2023-04-25T08:57:16;23.67;;;3.97;;
35969;SDS011;22448;51.298;6.430;2023-04-25T08:59:46;19.35;;;3.22;;
35969;SDS011;22448;51.298;6.430;2023-04-25T09:02:14;19.90;;;3.45;;
35969;SDS011;22448;51.298;6.430;2023-04-25T09:04:47;18.42;;;3.15;;
35969;SDS011;22448;51.298;6.430;2023-04-25T09:07:15;18.80;;;3.50;;
35969;SDS011;22448;51.298;6.430;2023-04-25T09:09:49;13.98;;;2.95;;
35969;SDS011;22448;51.298;6.430;2023-04-25T09:12:18;11.73;;;2.97;;
35969;SDS011;22448;51.298;6.430;2023-04-25T09:15:00;15.02;;;2.92;;
35969;SDS011;22448;51.298;6.430;2023-04-25T09:17:58;14.32;;;3.03;;
35969;SDS011;22448;51.298;6.430;2023-04-25T09:20:33;13.50;;;2.90;;
35969;SDS011;22448;51.298;6.430;2023-04-25T09:23:27;12.18;;;3.33;;
35969;SDS011;22448;51.298;6.430;2023-04-25T09:25:55;10.38;;;2.88;;
35969;SDS011;22448;51.298;6.430;2023-04-25T09:28:23;20.08;;;3.95;;
35969;SDS011;22448;51.298;6.430;2023-04-25T09:30:58;15.75;;;2.80;;
35969;SDS011;22448;51.298;6.430;2023-04-25T09:33:35;11.05;;;2.78;;
35969;SDS011;22448;51.298;6.430;2023-04-25T09:36:05;16.05;;;3.13;;
35969;SDS011;22448;51.298;6.430;2023-04-25T09:38:46;17.70;;;2.80;;
35969;SDS011;22448;51.298;6.430;2023-04-25T09:41:25;14.68;;;2.90;;
35969;SDS011;22448;51.298;6.430;2023-04-25T09:43:59;14.13;;;2.58;;
35969;SDS011;22448;51.298;6.430;2023-04-25T09:46:34;10.20;;;2.30;;
35969;SDS011;22448;51.298;6.430;2023-04-25T09:49:16;14.00;;;3.03;;
35969;SDS011;22448;51.298;6.430;2023-04-25T09:52:13;15.82;;;3.33;;
35969;SDS011;22448;51.298;6.430;2023-04-25T09:54:52;9.60;;;2.88;;
35969;SDS011;22448;51.298;6.430;2023-04-25T09:57:27;16.52;;;3.50;;
35969;SDS011;22448;51.298;6.430;2023-04-25T09:59:56;13.68;;;2.72;;
35969;SDS011;22448;51.298;6.430;2023-04-25T10:02:27;17.95;;;2.88;;
35969;SDS011;22448;51.298;6.430;2023-04-25T10:07:36;13.10;;;2.90;;
35969;SDS011;22448;51.298;6.430;2023-04-25T10:10:09;18.20;;;3.28;;
35969;SDS011;22448;51.298;6.430;2023-04-25T10:12:39;20.00;;;3.63;;
35969;SDS011;22448;51.298;6.430;2023-04-25T10:15:09;14.35;;;3.42;;
35969;SDS011;22448;51.298;6.430;2023-04-25T10:17:37;15.48;;;2.92;;
35969;SDS011;22448;51.298;6.430;2023-04-25T10:20:06;15.82;;;3.38;;
35969;SDS011;22448;51.298;6.430;2023-04-25T10:22:46;18.75;;;2.83;;
35969;SDS011;22448;51.298;6.430;2023-04-25T10:25:14;9.90;;;3.45;;
35969;SDS011;22448;51.298;6.430;2023-04-25T10:27:42;15.43;;;2.65;;
35969;SDS011;22448;51.298;6.430;2023-04-25T10:30:10;12.48;;;3.05;;
35969;SDS011;22448;51.298;6.430;2023-04-25T10:32:42;13.43;;;2.65;;
35969;SDS011;22448;51.298;6.430;2023-04-25T10:35:23;11.73;;;2.47;;
35969;SDS011;22448;51.298;6.430;2023-04-25T10:38:25;9.50;;;2.47;;
35969;SDS011;22448;51.298;6.430;2023-04-25T10:41:04;9.85;;;2.58;;
35969;SDS011;22448;51.298;6.430;2023-04-25T10:46:15;10.38;;;2.35;;
35969;SDS011;22448;51.298;6.430;2023-04-25T10:48:55;12.10;;;2.78;;
35969;SDS011;22448;51.298;6.430;2023-04-25T10:54:16;12.48;;;2.63;;
35969;SDS011;22448;51.298;6.430;2023-04-25T10:56:44;13.52;;;2.53;;
35969;SDS011;22448;51.298;6.430;2023-04-25T10:59:15;13.60;;;2.90;;
35969;SDS011;22448;51.298;6.430;2023-04-25T11:01:47;11.68;;;2.30;;
35969;SDS011;22448;51.298;6.430;2023-04-25T11:04:21;7.55;;;2.17;;
35969;SDS011;22448;51.298;6.430;2023-04-25T11:09:23;9.32;;;2.95;;
35969;SDS011;22448;51.298;6.430;2023-04-25T11:11:57;8.93;;;2.40;;
35969;SDS011;22448;51.298;6.430;2023-04-25T11:14:25;9.68;;;2.22;;
35969;SDS011;22448;51.298;6.430;2023-04-25T11:16:53;13.07;;;3.10;;
35969;SDS011;22448;51.298;6.430;2023-04-25T11:19:27;9.68;;;2.63;;
35969;SDS011;22448;51.298;6.430;2023-04-25T11:21:56;11.45;;;2.60;;
35969;SDS011;22448;51.298;6.430;2023-04-25T11:24:30;14.48;;;2.58;;
35969;SDS011;22448;51.298;6.430;2023-04-25T11:26:59;8.02;;;1.90;;
35969;SDS011;22448;51.298;6.430;2023-04-25T11:29:29;8.27;;;2.03;;
35969;SDS011;22448;51.298;6.430;2023-04-25T11:31:57;16.33;;;3.50;;
35969;SDS011;22448;51.298;6.430;2023-04-25T11:34:25;12.20;;;2.72;;
35969;SDS011;22448;51.298;6.430;2023-04-25T11:36:53;12.98;;;3.85;;
35969;SDS011;22448;51.298;6.430;2023-04-25T11:39:20;20.77;;;5.78;;
35969;SDS011;22448;51.298;6.430;2023-04-25T11:41:47;22.67;;;4.85;;
35969;SDS011;22448;51.298;6.430;2023-04-25T11:44:18;13.80;;;4.50;;
35969;SDS011;22448;51.298;6.430;2023-04-25T11:46:45;8.02;;;2.60;;
35969;SDS011;22448;51.298;6.430;2023-04-25T11:49:13;9.50;;;2.13;;
35969;SDS011;22448;51.298;6.430;2023-04-25T11:51:42;9.68;;;2.15;;
35969;SDS011;22448;51.298;6.430;2023-04-25T11:54:10;7.93;;;1.95;;
35969;SDS011;22448;51.298;6.430;2023-04-25T11:56:42;12.48;;;2.40;;
35969;SDS011;22448;51.298;6.430;2023-04-25T11:59:10;11.35;;;2.45;;
35969;SDS011;22448;51.298;6.430;2023-04-25T12:01:39;9.68;;;2.20;;
35969;SDS011;22448;51.298;6.430;2023-04-25T12:04:17;12.70;;;2.25;;
35969;SDS011;22448;51.298;6.430;2023-04-25T12:06:50;7.95;;;1.95;;
35969;SDS011;22448;51.298;6.430;2023-04-25T12:09:29;5.32;;;1.65;;
35969;SDS011;22448;51.298;6.430;2023-04-25T12:11:58;8.95;;;2.40;;
35969;SDS011;22448;51.298;6.430;2023-04-25T12:14:33;6.80;;;1.67;;
35969;SDS011;22448;51.298;6.430;2023-04-25T12:17:02;4.97;;;1.48;;
35969;SDS011;22448;51.298;6.430;2023-04-25T12:19:34;8.13;;;1.45;;
35969;SDS011;22448;51.298;6.430;2023-04-25T12:22:02;2.88;;;1.48;;
35969;SDS011;22448;51.298;6.430;2023-04-25T12:24:44;2.70;;;1.25;;
35969;SDS011;22448;51.298;6.430;2023-04-25T12:27:13;8.40;;;1.75;;
35969;SDS011;22448;51.298;6.430;2023-04-25T12:29:49;5.20;;;1.70;;
35969;SDS011;22448;51.298;6.430;2023-04-25T12:32:21;7.25;;;1.80;;
35969;SDS011;22448;51.298;6.430;2023-04-25T12:34:48;9.18;;;2.10;;
35969;SDS011;22448;51.298;6.430;2023-04-25T12:37:15;10.50;;;2.53;;
35969;SDS011;22448;51.298;6.430;2023-04-25T12:39:42;6.43;;;1.80;;
35969;SDS011;22448;51.298;6.430;2023-04-25T12:42:09;6.40;;;1.80;;
35969;SDS011;22448;51.298;6.430;2023-04-25T12:44:39;9.23;;;1.40;;
35969;SDS011;22448;51.298;6.430;2023-04-25T12:47:07;3.80;;;1.23;;
35969;SDS011;22448;51.298;6.430;2023-04-25T12:49:34;2.75;;;1.23;;
35969;SDS011;22448;51.298;6.430;2023-04-25T12:52:01;4.88;;;1.40;;
35969;SDS011;22448;51.298;6.430;2023-04-25T12:54:29;9.27;;;3.47;;
35969;SDS011;22448;51.298;6.430;2023-04-25T12:56:56;8.68;;;2.83;;
35969;SDS011;22448;51.298;6.430;2023-04-25T12:59:23;5.20;;;2.35;;
35969;SDS011;22448;51.298;6.430;2023-04-25T13:01:50;10.48;;;2.15;;
35969;SDS011;22448;51.298;6.430;2023-04-25T13:04:18;7.63;;;2.75;;
35969;SDS011;22448;51.298;6.430;2023-04-25T13:06:47;7.38;;;2.13;;
35969;SDS011;22448;51.298;6.430;2023-04-25T13:09:14;11.82;;;2.30;;
35969;SDS011;22448;51.298;6.430;2023-04-25T13:11:42;8.35;;;1.80;;
35969;SDS011;22448;51.298;6.430;2023-04-25T13:14:09;7.32;;;1.83;;
35969;SDS011;22448;51.298;6.430;2023-04-25T13:16:36;8.10;;;2.05;;
35969;SDS011;22448;51.298;6.430;2023-04-25T13:19:03;8.40;;;1.80;;
35969;SDS011;22448;51.298;6.430;2023-04-25T13:21:30;14.77;;;2.40;;
35969;SDS011;22448;51.298;6.430;2023-04-25T13:23:59;11.77;;;1.95;;
35969;SDS011;22448;51.298;6.430;2023-04-25T13:26:26;9.25;;;2.13;;
35969;SDS011;22448;51.298;6.430;2023-04-25T13:28:53;10.35;;;2.40;;
35969;SDS011;22448;51.298;6.430;2023-04-25T13:31:20;12.48;;;2.55;;
35969;SDS011;22448;51.298;6.430;2023-04-25T13:33:47;10.98;;;2.25;;
35969;SDS011;22448;51.298;6.430;2023-04-25T13:36:15;10.25;;;2.25;;
35969;SDS011;22448;51.298;6.430;2023-04-25T13:38:42;9.60;;;1.92;;
35969;SDS011;22448;51.298;6.430;2023-04-25T13:41:10;7.93;;;1.95;;
35969;SDS011;22448;51.298;6.430;2023-04-25T13:43:42;8.55;;;1.98;;
35969;SDS011;22448;51.298;6.430;2023-04-25T13:46:09;10.88;;;2.25;;
35969;SDS011;22448;51.298;6.430;2023-04-25T13:48:56;9.63;;;2.20;;
35969;SDS011;22448;51.298;6.430;2023-04-25T13:51:37;15.95;;;2.83;;
35969;SDS011;22448;51.298;6.430;2023-04-25T13:54:04;7.65;;;2.28;;
35969;SDS011;22448;51.298;6.430;2023-04-25T13:56:31;10.43;;;2.38;;
35969;SDS011;22448;51.298;6.430;2023-04-25T13:58:58;15.20;;;2.67;;
35969;SDS011;22448;51.298;6.430;2023-04-25T14:01:25;9.88;;;2.20;;
35969;SDS011;22448;51.298;6.430;2023-04-25T14:03:54;10.25;;;2.15;;
35969;SDS011;22448;51.298;6.430;2023-04-25T14:06:21;10.02;;;2.65;;
35969;SDS011;22448;51.298;6.430;2023-04-25T14:08:50;12.98;;;2.10;;
35969;SDS011;22448;51.298;6.430;2023-04-25T14:11:17;11.88;;;1.90;;
35969;SDS011;22448;51.298;6.430;2023-04-25T14:13:45;16.98;;;2.20;;
35969;SDS011;22448;51.298;6.430;2023-04-25T14:16:12;12.32;;;3.30;;
35969;SDS011;22448;51.298;6.430;2023-04-25T14:18:39;7.93;;;1.95;;
35969;SDS011;22448;51.298;6.430;2023-04-25T14:21:06;7.05;;;1.67;;
35969;SDS011;22448;51.298;6.430;2023-04-25T14:23:33;8.23;;;2.25;;
35969;SDS011;22448;51.298;6.430;2023-04-25T14:26:00;8.70;;;2.15;;
35969;SDS011;22448;51.298;6.430;2023-04-25T14:28:28;7.75;;;1.73;;
35969;SDS011;22448;51.298;6.430;2023-04-25T14:30:55;4.95;;;1.73;;
35969;SDS011;22448;51.298;6.430;2023-04-25T14:33:22;8.13;;;2.15;;
35969;SDS011;22448;51.298;6.430;2023-04-25T14:35:50;5.90;;;1.55;;
35969;SDS011;22448;51.298;6.430;2023-04-25T14:38:16;7.18;;;1.70;;
35969;SDS011;22448;51.298;6.430;2023-04-25T14:40:43;9.13;;;1.90;;
35969;SDS011;22448;51.298;6.430;2023-04-25T14:43:10;8.30;;;1.80;;
35969;SDS011;22448;51.298;6.430;2023-04-25T14:45:37;5.82;;;1.77;;
35969;SDS011;22448;51.298;6.430;2023-04-25T14:48:03;4.35;;;1.27;;
35969;SDS011;22448;51.298;6.430;2023-04-25T14:50:31;9.15;;;1.70;;
35969;SDS011;22448;51.298;6.430;2023-04-25T14:52:58;12.57;;;1.80;;
35969;SDS011;22448;51.298;6.430;2023-04-25T14:55:27;8.63;;;2.03;;
35969;SDS011;22448;51.298;6.430;2023-04-25T14:57:54;6.57;;;1.83;;
35969;SDS011;22448;51.298;6.430;2023-04-25T15:00:23;9.63;;;2.13;;
35969;SDS011;22448;51.298;6.430;2023-04-25T15:02:51;8.57;;;2.10;;
35969;SDS011;22448;51.298;6.430;2023-04-25T15:05:18;9.65;;;1.95;;
35969;SDS011;22448;51.298;6.430;2023-04-25T15:07:46;8.07;;;1.77;;
35969;SDS011;22448;51.298;6.430;2023-04-25T15:10:14;10.20;;;1.70;;